Flight Track Log - Related Links

Times and Time Zones

All times are in EST time to prevent confusion due to time zone crossing. See the EJA396 flight status page for this flight to view local times or setup timezone preferences in your user account.

Time Position Orientation Groundspeed Altitude Reporting Facility
EST Latitude Longitude Course Direction KTS MPH feet Rate Location/Type
Fri 12:13:10 PM 37.3500 -121.9167 141° Southeast 147 169 1,300  Level Northern Cal TRACON
Fri 12:14:10 PM 37.3242 -121.8900 141° Southeast 199 229 4,100 4,562 Climbing Oakland Center
Fri 12:15:11 PM 37.2692 -121.8217 135° Southeast 229 264 10,500 5,073 Climbing Oakland Center
Fri 12:16:13 PM 37.2253 -121.7397 124° Southeast 284 327 14,500 2,439 Climbing Oakland Center
Fri 12:17:14 PM 37.1411 -121.7489 185° South 344 396 15,500 2,098 Climbing Oakland Center
Fri 12:18:16 PM 37.1622 -121.8567 284° West 341 392 18,800 1,707 Climbing Oakland Center
Fri 12:19:17 PM 37.2575 -121.8694 354° North 357 411 19,000 1,659 Climbing Oakland Center
Fri 12:20:19 PM 37.3597 -121.8428 12° North 371 427 22,200 2,683 Climbing Oakland Center
Fri 12:21:20 PM 37.4647 -121.8142 12° North 384 442 24,500 2,195 Climbing Oakland Center
Fri 12:22:22 PM 37.5744 -121.7861 11° North 400 460 26,700 2,341 Climbing Oakland Center
Fri 12:23:23 PM 37.7058 -121.7506 12° North 404 465 29,300 2,195 Climbing Oakland Center
Fri 12:24:25 PM 37.8169 -121.7208 12° North 407 468 31,200 1,805 Climbing Oakland Center
Fri 12:25:26 PM 37.9136 -121.6250 38° Northeast 443 510 33,000 1,610 Climbing Oakland Center
Fri 12:26:28 PM 37.9997 -121.5111 46° Northeast 449 517 34,500 1,268 Climbing Oakland Center
Fri 12:27:29 PM 38.0933 -121.3875 46° Northeast 461 531 35,600 1,122 Climbing Oakland Center
Fri 12:28:31 PM 38.1819 -121.2700 46° Northeast 463 533 36,800 1,220 Climbing Oakland Center
Fri 12:29:32 PM 38.2692 -121.1533 46° Northeast 461 531 38,100 1,279 Climbing Oakland Center
Fri 12:30:33 PM 38.3547 -121.0406 46° Northeast 452 520 39,400 1,171 Climbing Oakland Center
Fri 12:31:35 PM 38.4544 -120.9069 46° Northeast 442 509 40,500 780 Climbing Oakland Center
Fri 12:32:36 PM 38.5383 -120.7933 47° Northeast 443 510 41,000 244 Climbing Oakland Center
Fri 12:33:38 PM 38.6242 -120.6775 46° Northeast 451 519 41,000  Level Oakland Center
Fri 12:34:39 PM 38.7111 -120.5592 47° Northeast 456 525 41,000  Level Oakland Center
Fri 12:35:41 PM 38.7981 -120.4403 47° Northeast 459 528 41,000  Level Oakland Center
Fri 12:36:42 PM 38.8856 -120.3208 47° Northeast 460 529 41,000  Level Oakland Center
Fri 12:37:43 PM 38.9728 -120.1992 47° Northeast 463 533 41,000  Level Oakland Center
Fri 12:38:45 PM 39.0778 -120.0553 47° Northeast 466 536 41,000  Level Oakland Center
Fri 12:39:46 PM 39.1658 -119.9325 47° Northeast 467 537 41,000  Level Oakland Center
Fri 12:40:48 PM 39.2581 -119.8097 46° Northeast 474 545 41,000  Level Oakland Center
Fri 12:41:49 PM 39.3472 -119.6869 47° Northeast 471 542 41,000  Level Oakland Center
Fri 12:42:51 PM 39.4311 -119.5639 49° Northeast 458 527 41,000  Level Oakland Center
Fri 12:43:52 PM 39.5208 -119.4397 47° Northeast 466 536 41,000  Level Oakland Center
Fri 12:44:53 PM 39.6114 -119.3131 47° Northeast 474 545 41,000  Level Oakland Center
Fri 12:45:55 PM 39.6989 -119.1883 48° Northeast 466 536 41,000  Level Oakland Center
Fri 12:46:56 PM 39.7878 -119.0628 47° Northeast 466 536 41,000  Level Oakland Center
Fri 12:47:58 PM 39.8756 -118.9364 48° Northeast 467 537 41,000  Level Oakland Center
Fri 12:48:59 PM 39.9631 -118.8094 48° Northeast 467 537 41,000  Level Oakland Center
Fri 12:50:00 PM 40.0600 -118.6506 51° Northeast 467 537 41,000  Level Oakland Center
Fri 12:51:02 PM 40.0933 -118.4750 76° East 494 568 41,000  Level Oakland Center
Fri 12:52:03 PM 40.1200 -118.2989 79° East 495 570 41,000  Level Oakland Center
Fri 12:53:05 PM 40.1478 -118.1208 78° East 495 570 41,000  Level Oakland Center
Fri 12:54:06 PM 40.1747 -117.9428 79° East 497 572 41,000  Level Oakland Center
Fri 12:54:57 PM 40.1972 -117.7892 79° East 497 572 41,000  Level Salt Lake Center
Fri 12:55:59 PM 40.2231 -117.6189 79° East 498 573 41,000  Level Salt Lake Center
Fri 12:57:01 PM 40.2519 -117.4203 79° East 498 573 41,000  Level Salt Lake Center
Fri 12:58:03 PM 40.2772 -117.2494 79° East 500 575 41,000  Level Salt Lake Center
Fri 12:59:04 PM 40.3061 -117.0500 79° East 501 577 41,000  Level Salt Lake Center
Fri 01:00:06 PM 40.3306 -116.8736 80° East 501 577 41,000  Level Salt Lake Center
Fri 01:01:08 PM 40.3581 -116.6875 79° East 503 579 41,000  Level Salt Lake Center
Fri 01:02:10 PM 40.3814 -116.5169 80° East 499 574 41,000  Level Salt Lake Center
Fri 01:03:12 PM 40.4078 -116.3167 80° East 502 578 41,000  Level Salt Lake Center
Fri 01:04:14 PM 40.4317 -116.1428 80° East 504 580 41,000  Level Salt Lake Center
Fri 01:05:16 PM 40.4578 -115.9406 80° East 505 581 41,000  Level Salt Lake Center
Fri 01:06:18 PM 40.4797 -115.7681 80° East 503 579 41,000  Level Salt Lake Center
Fri 01:07:20 PM 40.5075 -115.5650 80° East 504 580 41,000  Level Salt Lake Center
Fri 01:08:21 PM 40.5286 -115.3911 81° East 505 581 41,000  Level Salt Lake Center
Fri 01:09:23 PM 40.5514 -115.2153 80° East 507 583 41,000  Level Salt Lake Center
Fri 01:10:25 PM 40.5808 -115.0119 79° East 508 585 41,000  Level Salt Lake Center
Fri 01:11:27 PM 40.6036 -114.8361 80° East 509 586 41,000  Level Salt Lake Center
Fri 01:12:29 PM 40.6236 -114.6336 83° East 511 588 41,000  Level Salt Lake Center
Fri 01:13:30 PM 40.6461 -114.4500 81° East 511 588 41,000  Level Salt Lake Center
Fri 01:14:32 PM 40.6678 -114.2656 81° East 511 588 41,000  Level Salt Lake Center
Fri 01:15:34 PM 40.6892 -114.0800 81° East 513 590 41,000  Level Salt Lake Center
Fri 01:16:36 PM 40.7106 -113.8944 81° East 513 590 41,000  Level Salt Lake Center
Fri 01:17:38 PM 40.7339 -113.6731 82° East 512 589 41,000  Level Salt Lake Center
Fri 01:18:39 PM 40.7461 -113.4856 85° East 514 592 41,000  Level Salt Lake Center
Fri 01:19:41 PM 40.7633 -113.2992 83° East 514 592 41,000  Level Salt Lake Center
Fri 01:20:43 PM 40.7758 -113.1108 85° East 514 592 41,000  Level Salt Lake Center
Fri 01:21:45 PM 40.7886 -112.9233 85° East 516 594 41,000  Level Salt Lake Center
Fri 01:22:47 PM 40.8017 -112.7358 85° East 516 594 41,000  Level Salt Lake Center
Fri 01:23:49 PM 40.8167 -112.5108 85° East 515 593 41,000  Level Salt Lake Center
Fri 01:24:51 PM 40.8289 -112.3239 85° East 515 593 41,000  Level Salt Lake Center
Fri 01:25:52 PM 40.8400 -112.1372 85° East 515 593 41,000  Level Salt Lake Center
Fri 01:26:54 PM 40.8492 -111.9525 86° East 518 596 41,000  Level Salt Lake Center
Fri 01:28:00 PM 40.8392 -111.7679 94° East  Level FlightAware Approximate
Fri 01:28:58 PM 40.8278 -111.5458 94° East 517 595 41,000  Level Salt Lake Center
Fri 01:30:00 PM 40.8181 -111.3578 94° East 518 596 41,000  Level Salt Lake Center
Fri 01:31:01 PM 40.8072 -111.1686 94° East 518 596 41,000  Level Salt Lake Center
Fri 01:32:03 PM 40.7964 -110.9803 94° East 518 596 41,000  Level Salt Lake Center
Fri 01:33:05 PM 40.7853 -110.7922 94° East 518 596 41,000  Level Salt Lake Center
Fri 01:34:07 PM 40.7706 -110.5708 95° East 519 597 41,000  Level Salt Lake Center
Fri 01:35:08 PM 40.7589 -110.3881 95° East 524 603 41,000  Level Salt Lake Center
Fri 01:36:10 PM 40.7478 -110.2050 95° East 518 596 41,000  Level Salt Lake Center
Fri 01:37:12 PM 40.7333 -109.9931 95° East 519 597 41,000  Level Salt Lake Center
Fri 01:38:14 PM 40.7208 -109.8114 95° East 520 598 41,000  Level Salt Lake Center
Fri 01:39:16 PM 40.7058 -109.6003 95° East 519 597 41,000  Level Salt Lake Center
Fri 01:40:17 PM 40.6928 -109.4186 95° East 519 597 41,000  Level Salt Lake Center
Fri 01:41:19 PM 40.6767 -109.2069 96° East 519 597 41,000  Level Salt Lake Center
Fri 01:42:21 PM 40.6650 -109.0364 95° East 520 598 41,000  Level Salt Lake Center
Fri 01:43:23 PM 40.6478 -108.8258 96° East 521 600 41,000  Level Salt Lake Center
Fri 01:44:25 PM 40.6342 -108.6458 96° East 521 600 41,000  Level Salt Lake Center
Fri 01:45:27 PM 40.6175 -108.4367 96° East 519 597 41,000  Level Salt Lake Center
Fri 01:46:29 PM 40.6025 -108.2569 96° East 519 597 41,000  Level Salt Lake Center
Fri 01:47:30 PM 40.5856 -108.0475 96° East 517 595 41,000  Level Salt Lake Center
Fri 01:48:32 PM 40.5703 -107.8689 96° East 517 595 41,000  Level Salt Lake Center
Fri 01:49:34 PM 40.5514 -107.6583 97° East 521 600 41,000  Level Salt Lake Center
Fri 01:51:02 PM 40.5311 -107.4253 96° East 519 597 41,000  Level Denver Center
Fri 01:52:04 PM 40.5117 -107.1933 96° East 519 597 41,000  Level Denver Center
Fri 01:53:06 PM 40.4967 -107.0044 96° East 519 597 41,000 -871 Level Denver Center
Fri 01:54:08 PM 40.4806 -106.8147 96° East 518 596 39,200 -1,935 Descending Denver Center
Fri 01:55:10 PM 40.4647 -106.6219 96° East 525 604 37,000 -1,742 Descending Denver Center
Fri 01:56:12 PM 40.4475 -106.4269 97° East 527 606 35,600 -2,419 Descending Denver Center
Fri 01:57:14 PM 40.4286 -106.2125 97° East 531 611 32,000 -3,387 Descending Denver Center
Fri 01:58:16 PM 40.4106 -106.0058 96° East 541 623 28,600 -3,242 Descending Denver Center
Fri 01:59:18 PM 40.3931 -105.8108 97° East 539 620 25,300 -2,824 Descending Denver Center
Fri 02:00:32 PM 40.3756 -105.6417 98° East 476 548 22,200 -2,779 Descending Denver Center
Fri 02:01:34 PM 40.3553 -105.4550 98° East 396 456 19,000 -2,565 Descending Denver Center
Fri 02:02:36 PM 40.2928 -105.3594 131° Southeast 346 398 16,900 -2,177 Descending Denver Center
Fri 02:03:38 PM 40.2228 -105.2717 136° Southeast 326 375 14,500 -2,226 Descending Denver Center
Fri 02:04:40 PM 40.1592 -105.1939 137° Southeast 315 362 12,300 -2,032 Descending Denver Center
Fri 02:05:42 PM 40.0803 -105.1556 160° South 283 326 10,300 -1,452 Descending Denver Center
Fri 02:06:44 PM 40.0147 -105.1261 161° South 249 287 9,300 -677 Descending Denver Center
Fri 02:07:46 PM 39.9558 -105.0981 160° South 227 261 8,900 -581 Descending Denver Center
Fri 02:08:48 PM 39.9033 -105.0522 146° Southeast 211 243 8,100 -387 Descending Denver Center
Fri 02:09:50 PM 39.8558 -105.0086 145° Southeast 209 241 8,100 -387 Level Denver Center
Fri 02:10:52 PM 39.8064 -104.9636 145° Southeast 203 234 7,300 -387 Descending Denver Center
Fri 02:11:54 PM 39.7619 -104.9231 145° Southeast 197 227 7,300 -48 Level Denver Center
Fri 02:12:56 PM 39.7158 -104.8803 144° Southeast 191 220 7,200 -97 Descending Denver Center
Fri 02:13:58 PM 39.6711 -104.8553 157° South 179 206 7,100 -194 Descending Denver Center
Fri 02:15:00 PM 39.6306 -104.8536 178° South 133 153 6,800 -435 Descending Denver Center
Fri 02:16:02 PM 39.5981 -104.8522 178° South 118 136 6,200 -365 Descending Denver Center
Fri 02:17:28 PM 39.8561 -105.2131 313° West 37 43 5,900 -122 Descending Denver Center
Fri 02:18:30 PM 39.8656 -105.2081 22° Northeast 36 41 5,900  Level Denver Center

Login

Don't have an account? Register now (free) for customized features, flight alerts, and more!